createdAt,value
2023-01-26T00:01:13.773Z,10.98
2023-01-26T00:03:40.654Z,11.38
2023-01-26T00:06:09.545Z,11.70
2023-01-26T00:08:41.209Z,11.27
2023-01-26T00:11:10.082Z,11.15
2023-01-26T00:13:37.935Z,11.23
2023-01-26T00:16:05.142Z,11.40
2023-01-26T00:18:31.991Z,12.38
2023-01-26T00:21:03.500Z,12.65
2023-01-26T00:23:32.693Z,10.25
2023-01-26T00:26:00.110Z,12.00
2023-01-26T00:28:29.145Z,10.07
2023-01-26T00:31:06.265Z,8.70
2023-01-26T00:33:33.162Z,11.25
2023-01-26T00:36:00.127Z,8.75
2023-01-26T00:38:27.181Z,10.02
2023-01-26T00:40:54.128Z,11.02
2023-01-26T00:43:21.027Z,9.57
2023-01-26T00:45:47.737Z,9.00
2023-01-26T00:48:14.829Z,8.55
2023-01-26T00:50:41.647Z,12.27
2023-01-26T00:53:10.250Z,10.13
2023-01-26T00:55:37.697Z,8.90
2023-01-26T00:58:07.827Z,8.65
2023-01-26T01:00:37.032Z,9.27
2023-01-26T01:03:05.488Z,11.30
2023-01-26T01:05:33.463Z,9.57
2023-01-26T01:08:00.320Z,8.98
2023-01-26T01:10:27.449Z,9.13
2023-01-26T01:12:56.551Z,7.38
2023-01-26T01:15:23.928Z,9.50
2023-01-26T01:17:52.237Z,8.88
2023-01-26T01:20:19.193Z,7.72
2023-01-26T01:22:47.045Z,10.15
2023-01-26T01:25:14.474Z,10.70
2023-01-26T01:27:41.268Z,8.85
2023-01-26T01:30:08.754Z,9.07
2023-01-26T01:32:36.613Z,9.23
2023-01-26T01:35:03.600Z,9.85
2023-01-26T01:37:30.935Z,8.70
2023-01-26T01:39:57.779Z,9.95
2023-01-26T01:42:25.353Z,9.38
2023-01-26T01:45:26.024Z,8.80
2023-01-26T01:48:02.877Z,7.47
2023-01-26T01:50:39.422Z,8.07
2023-01-26T01:53:10.840Z,8.38
2023-01-26T01:55:38.016Z,8.00
2023-01-26T01:58:06.781Z,10.40
2023-01-26T02:00:33.757Z,7.88
2023-01-26T02:03:11.398Z,7.50
2023-01-26T02:06:03.809Z,8.80
2023-01-26T02:08:34.999Z,7.47
2023-01-26T02:11:07.464Z,8.70
2023-01-26T02:13:35.016Z,8.95
2023-01-26T02:16:04.126Z,8.02
2023-01-26T02:18:31.057Z,6.93
2023-01-26T02:21:09.145Z,6.60
2023-01-26T02:23:57.627Z,7.43
2023-01-26T02:26:29.919Z,11.55
2023-01-26T02:28:57.912Z,9.35
2023-01-26T02:31:26.796Z,8.02
2023-01-26T02:33:54.874Z,8.52
2023-01-26T02:36:24.514Z,8.30
2023-01-26T02:39:14.607Z,10.00
2023-01-26T02:42:00.773Z,8.27
2023-01-26T02:44:29.154Z,8.93
2023-01-26T02:46:56.295Z,9.82
2023-01-26T02:49:41.622Z,7.90
2023-01-26T02:52:08.799Z,7.80
2023-01-26T02:54:54.269Z,6.93
2023-01-26T02:57:21.185Z,5.80
2023-01-26T02:59:47.967Z,7.85
2023-01-26T03:02:14.899Z,7.65
2023-01-26T03:04:43.272Z,6.30
2023-01-26T03:07:10.615Z,7.57
2023-01-26T03:09:37.513Z,8.95
2023-01-26T03:12:04.720Z,8.40
2023-01-26T03:14:31.491Z,6.97
2023-01-26T03:16:58.222Z,8.05
2023-01-26T03:19:43.559Z,6.68
2023-01-26T03:22:29.960Z,7.28
2023-01-26T03:25:16.660Z,7.32
2023-01-26T03:27:47.009Z,8.13
2023-01-26T03:30:18.716Z,6.88
2023-01-26T03:32:47.291Z,6.87
2023-01-26T03:35:22.397Z,5.38
2023-01-26T03:37:54.452Z,7.25
2023-01-26T03:40:52.530Z,8.18
2023-01-26T03:43:39.223Z,8.13
2023-01-26T03:46:26.508Z,6.40
2023-01-26T03:49:12.569Z,6.40
2023-01-26T03:51:58.389Z,7.35
2023-01-26T03:54:43.870Z,6.55
2023-01-26T03:57:10.672Z,6.30
2023-01-26T03:59:38.316Z,6.07
2023-01-26T04:02:29.339Z,6.88
2023-01-26T04:05:16.712Z,6.10
2023-01-26T04:08:06.227Z,6.00
2023-01-26T04:10:33.582Z,8.07
2023-01-26T04:13:21.689Z,7.50
2023-01-26T04:16:11.994Z,6.22
2023-01-26T04:18:57.455Z,6.95
2023-01-26T04:21:28.542Z,5.45
2023-01-26T04:23:57.469Z,7.10
2023-01-26T04:26:26.508Z,7.20
2023-01-26T04:28:54.690Z,4.53
2023-01-26T04:31:21.647Z,5.88
2023-01-26T04:33:50.556Z,6.95
2023-01-26T04:36:17.479Z,9.13
2023-01-26T04:38:47.189Z,5.93
2023-01-26T04:41:17.840Z,6.35
2023-01-26T04:43:47.803Z,6.72
2023-01-26T04:46:15.836Z,6.03
2023-01-26T04:48:43.618Z,5.38
2023-01-26T04:51:14.278Z,6.70
2023-01-26T04:53:41.704Z,5.32
2023-01-26T04:56:14.872Z,5.00
2023-01-26T04:58:42.367Z,5.57
2023-01-26T05:01:09.326Z,4.75
2023-01-26T05:03:36.327Z,5.32
2023-01-26T05:06:03.288Z,5.30
2023-01-26T05:08:31.030Z,5.70
2023-01-26T05:10:57.808Z,6.05
2023-01-26T05:13:35.461Z,6.88
2023-01-26T05:16:13.803Z,6.78
2023-01-26T05:18:53.094Z,5.13
2023-01-26T05:21:44.351Z,5.32
2023-01-26T05:24:12.566Z,5.47
2023-01-26T05:27:21.361Z,7.05
2023-01-26T05:30:00.588Z,4.28
2023-01-26T05:32:30.561Z,6.10
2023-01-26T05:34:57.946Z,5.65
2023-01-26T05:37:26.495Z,6.35
2023-01-26T05:39:53.334Z,5.60
2023-01-26T05:42:21.001Z,5.97
2023-01-26T05:45:01.951Z,4.82
2023-01-26T05:47:29.251Z,5.32
2023-01-26T05:49:57.585Z,5.05
2023-01-26T05:52:28.291Z,6.25
2023-01-26T05:54:55.101Z,5.63
2023-01-26T05:57:23.139Z,6.28
2023-01-26T05:59:54.485Z,6.20
2023-01-26T06:02:22.149Z,6.10
2023-01-26T06:04:49.591Z,6.78
2023-01-26T06:07:16.384Z,6.18
2023-01-26T06:10:03.655Z,4.95
2023-01-26T06:13:02.519Z,6.32
2023-01-26T06:15:46.964Z,5.50
2023-01-26T06:18:14.687Z,6.22
2023-01-26T06:20:47.883Z,7.15
2023-01-26T06:23:14.721Z,5.75
2023-01-26T06:25:43.945Z,7.07
2023-01-26T06:28:10.671Z,6.32
2023-01-26T06:30:37.986Z,6.03
2023-01-26T06:33:09.130Z,5.95
2023-01-26T06:35:37.784Z,7.50
2023-01-26T06:38:09.579Z,5.72
2023-01-26T06:40:36.329Z,6.25
2023-01-26T06:43:03.816Z,6.45
2023-01-26T06:45:32.389Z,6.40
2023-01-26T06:48:00.047Z,7.88
2023-01-26T06:50:32.851Z,5.78
2023-01-26T06:53:02.601Z,7.43
2023-01-26T06:55:38.577Z,5.82
2023-01-26T06:58:23.825Z,5.70
2023-01-26T07:01:25.740Z,7.30
2023-01-26T07:03:54.567Z,7.68
2023-01-26T07:06:21.727Z,7.20
2023-01-26T07:08:48.584Z,6.65
2023-01-26T07:11:16.753Z,7.13
2023-01-26T07:13:43.508Z,5.32
2023-01-26T07:16:13.165Z,6.00
2023-01-26T07:18:40.068Z,5.90
2023-01-26T07:21:10.715Z,6.53
2023-01-26T07:23:37.603Z,7.30
2023-01-26T07:26:04.860Z,7.95
2023-01-26T07:28:31.641Z,7.00
2023-01-26T07:30:59.144Z,7.03
2023-01-26T07:33:26.157Z,6.13
2023-01-26T07:35:54.100Z,6.80
2023-01-26T07:38:21.440Z,6.30
2023-01-26T07:40:48.425Z,6.43
2023-01-26T07:43:15.540Z,7.00
2023-01-26T07:45:51.929Z,6.07
2023-01-26T07:48:20.360Z,6.40
2023-01-26T07:50:48.149Z,5.47
2023-01-26T07:53:15.323Z,8.30
2023-01-26T07:55:43.663Z,7.88
2023-01-26T07:58:10.952Z,6.63
2023-01-26T08:00:38.083Z,5.80
2023-01-26T08:03:07.255Z,7.97
2023-01-26T08:05:35.493Z,6.18
2023-01-26T08:08:02.441Z,5.82
2023-01-26T08:10:32.309Z,5.03
2023-01-26T08:13:00.664Z,6.97
2023-01-26T08:15:28.299Z,6.45
2023-01-26T08:17:55.496Z,6.32
2023-01-26T08:20:22.895Z,6.35
2023-01-26T08:22:50.769Z,5.30
2023-01-26T08:25:17.906Z,8.18
2023-01-26T08:27:44.726Z,6.50
2023-01-26T08:30:12.692Z,6.60
2023-01-26T08:32:39.749Z,6.47
2023-01-26T08:35:06.939Z,6.13
2023-01-26T08:37:34.068Z,6.75
2023-01-26T08:40:00.805Z,6.00
2023-01-26T08:42:27.992Z,7.07
2023-01-26T08:44:54.876Z,7.22
2023-01-26T08:47:21.687Z,6.75
2023-01-26T08:49:48.455Z,6.55
2023-01-26T08:52:15.328Z,5.18
2023-01-26T08:54:42.011Z,5.40
2023-01-26T08:57:08.713Z,4.68
2023-01-26T08:59:35.424Z,6.13
2023-01-26T09:02:02.286Z,4.53
2023-01-26T09:04:29.102Z,4.97
2023-01-26T09:06:56.016Z,5.78
2023-01-26T09:09:22.850Z,5.78
2023-01-26T09:11:49.619Z,5.10
2023-01-26T09:14:16.841Z,6.22
2023-01-26T09:16:43.678Z,8.50
2023-01-26T09:19:10.458Z,7.57
2023-01-26T09:21:37.279Z,4.72
2023-01-26T09:24:04.295Z,8.57
2023-01-26T09:26:31.576Z,8.68
2023-01-26T09:28:58.382Z,7.05
2023-01-26T09:31:25.293Z,7.68
2023-01-26T09:33:52.313Z,5.75
2023-01-26T09:36:19.302Z,8.68
2023-01-26T09:38:46.162Z,6.43
2023-01-26T09:41:41.122Z,8.43
2023-01-26T09:44:18.479Z,6.82
2023-01-26T09:47:00.175Z,5.80
2023-01-26T09:49:50.100Z,8.75
2023-01-26T09:52:50.998Z,6.05
2023-01-26T09:55:20.949Z,5.97
2023-01-26T09:57:50.863Z,6.03
2023-01-26T10:00:21.055Z,6.18
2023-01-26T10:02:55.350Z,7.38
2023-01-26T10:05:31.850Z,6.13
2023-01-26T10:08:13.641Z,6.28
2023-01-26T10:10:52.756Z,5.05
2023-01-26T10:13:21.958Z,6.20
2023-01-26T10:15:56.825Z,6.72
2023-01-26T10:18:37.093Z,7.30
2023-01-26T10:21:06.181Z,5.78
2023-01-26T10:23:34.550Z,5.65
2023-01-26T10:26:07.854Z,6.05
2023-01-26T10:28:35.999Z,5.45
2023-01-26T10:31:05.350Z,6.03
2023-01-26T10:33:35.674Z,5.93
2023-01-26T10:36:06.052Z,5.38
2023-01-26T10:38:32.788Z,6.70
2023-01-26T10:41:26.933Z,5.72
2023-01-26T10:46:34.034Z,3.28
2023-01-26T10:49:22.984Z,2.58
2023-01-26T10:52:28.521Z,4.05
2023-01-26T10:55:21.038Z,4.30
2023-01-26T10:57:48.001Z,4.32
2023-01-26T11:00:34.031Z,3.45
2023-01-26T11:03:18.455Z,3.83
2023-01-26T11:05:48.044Z,4.53
2023-01-26T11:08:39.187Z,4.25
2023-01-26T11:11:11.715Z,3.35
2023-01-26T11:13:38.546Z,3.85
2023-01-26T11:16:24.957Z,3.05
2023-01-26T11:19:13.444Z,2.55
2023-01-26T11:22:05.538Z,2.97
2023-01-26T11:24:37.582Z,1.50
2023-01-26T11:27:13.881Z,4.13
2023-01-26T11:29:46.778Z,2.97
2023-01-26T11:32:29.319Z,3.65
2023-01-26T11:35:14.826Z,2.17
2023-01-26T11:37:53.817Z,2.97
2023-01-26T11:40:37.804Z,3.05
